RJAARJSS

Guest
Details From RJAA - Narita Intl
To RJSS - Sendai
Flight Number -
Tags Generated
Created
Modified
Stats Distance 143 nm / 264 km
Max Altitude 0 ft / 0 m
Waypoints 2
Social Downloads 2
Likes 0
Share VATSIM

Download

Looking for another format? Having issues loading an existing format? Contact us
Advertisement - Login to hide

Notes

Generated

Route

RJAA RJSS

ID Type Via Altitude Latitude Longitude Leg Dist Tot Dist Heading (true) Name
O RJAA APT - 0 ft / 0 m 35.80271˚ 140.37991˚ - 0 nm - -
O RJSS APT - 0 ft / 0 m 38.13946˚ 140.91475˚ 142 nm 142 nm 10° / 11° -

Altitude Profile

Advertisement - Login to hide

RJAA

Details ICAO RJAA (NRT)
Name NARITA INTL
Region Japan
Timezone Asia/Tokyo (UTC+9.0)
Stats Elevation 141 ft / 43 m (AMSL)
Location 35.776552° 140.382770°
Runways 2
Magnetic Variation 7.405° W

METAR

RJAA 141300Z 26003KT CAVOK M00/M04 Q1025 NOSIG

Decode

TAF

TAF RJAA 141107Z 1412/1518 36005KT 9999 FEW030= TAF RJBB 141108Z 1412/1518 04010KT 9999 FEW020 SCT040 BECMG 1512/1515 17006KT

Decode

Departure Runways

ID Width Length Bearing (true) Bearing (mag) Surface Threshold Offset Overrun Length
16L 196 ft / 60 m 7,162 ft / 2,183 m 149.61° 157.02° Asphalt 190 ft / 58 m 0 ft / 0 m
16R 196 ft / 60 m 13,142 ft / 4,006 m 149.61° 157.02° Asphalt 0 ft / 0 m 410 ft / 125 m
34L 196 ft / 60 m 13,142 ft / 4,006 m 329.62° 337.03° Asphalt 0 ft / 0 m 415 ft / 126 m
34R 196 ft / 60 m 7,162 ft / 2,183 m 329.62° 337.03° Asphalt 190 ft / 58 m 0 ft / 0 m

RJSS

Details ICAO RJSS (SDJ)
Name SENDAI
Region Japan
Timezone Asia/Tokyo (UTC+9.0)
Stats Elevation 15 ft / 5 m (AMSL)
Location 38.138734° 140.918248°
Runways 2
Magnetic Variation 8.081° W

METAR

RJSS 141200Z 30005KT 9999 FEW030 02/M03 Q1023

Decode

TAF

TAF RJSS 141105Z 1412/1518 26007KT 9999 FEW030 SCT050 BECMG 1500/1503 14005KT BECMG 1506/1509 27005KT

Decode

Destination Runways

ID Width Length Bearing (true) Bearing (mag) Surface Threshold Offset Overrun Length
09 150 ft / 46 m 9,823 ft / 2,994 m 82.52° 90.60° Asphalt 0 ft / 0 m 200 ft / 61 m
12 150 ft / 46 m 3,932 ft / 1,199 m 117.79° 125.87° Asphalt 0 ft / 0 m 0 ft / 0 m
27 150 ft / 46 m 9,823 ft / 2,994 m 262.54° 270.62° Asphalt 0 ft / 0 m 200 ft / 61 m
30 150 ft / 46 m 3,932 ft / 1,199 m 297.80° 305.88° Asphalt 0 ft / 0 m 0 ft / 0 m

Approach Navaids

Runway Type Ident Frequency Range Bearing (true) Bearing (mag) Slope Elevation
27 Localiser ISD 111.70 MHz 18 nm / 33 km 262.52° 270.60° - 15 ft / 5 m (AMSL)
27 Glidescope ISD 111.70 MHz 10 nm / 19 km 262.53° 270.61° 3.00° 12 ft / 4 m (AMSL)
27 DME ISD 111.70 MHz 18 nm / 33 km - - - 29 ft / 9 m (AMSL)

Popular Alternatives